Time;durP1;ratioP1;P1;durP2;ratioP2;P2;SDS_P1;SDS_P2;PMS_P1;PMS_P2;Temp;Humidity;BMP_temperature;BMP_pressure;BME280_temperature;BME280_humidity;BME280_pressure;Samples;Min_cycle;Max_cycle;Signal;HPM_P1;HPM_P2
2022/08/24 00:00:44;;;;;;;9.85;1.83;;;;;;;;;;8358180;28;20033;-58
2022/08/24 00:04:45;;;;;;;5.47;1.90;;;;;;;;;;8364176;28;20030;-58
2022/08/24 00:08:47;;;;;;;6.93;1.90;;;;;;;;;;8361215;28;20103;-58
2022/08/24 00:12:48;;;;;;;3.67;1.70;;;;;;;;;;8360398;28;20039;-57
2022/08/24 00:16:49;;;;;;;4.50;1.90;;;;;;;;;;8366510;28;20394;-58
2022/08/24 00:20:49;;;;;;;2.97;1.80;;;;;;;;;;8363686;28;20028;-58
2022/08/24 00:24:51;;;;;;;3.07;2.00;;;;;;;;;;8372404;28;20025;-58
2022/08/24 00:28:51;;;;;;;3.78;1.77;;;;;;;;;;8370154;28;20262;-58
2022/08/24 00:32:53;;;;;;;4.28;2.20;;;;;;;;;;8367455;28;20041;-58
2022/08/24 00:36:53;;;;;;;2.42;1.92;;;;;;;;;;8371073;28;20029;-58
2022/08/24 00:40:53;;;;;;;3.15;1.80;;;;;;;;;;8369747;28;20146;-58
2022/08/24 00:44:53;;;;;;;4.07;1.70;;;;;;;;;;8368550;28;20029;-58
2022/08/24 00:49:00;;;;;;;3.22;1.65;;;;;;;;;;8371011;28;20273;-58
2022/08/24 00:53:01;;;;;;;6.30;1.70;;;;;;;;;;8368578;28;20028;-58
2022/08/24 00:57:04;;;;;;;2.05;1.48;;;;;;;;;;8371777;28;20021;-57
2022/08/24 01:01:06;;;;;;;3.70;1.57;;;;;;;;;;8368579;28;20056;-58
2022/08/24 01:05:08;;;;;;;4.22;1.60;;;;;;;;;;8366144;28;20032;-58
2022/08/24 01:09:08;;;;;;;2.22;1.40;;;;;;;;;;8364011;28;20035;-58
2022/08/24 01:13:10;;;;;;;2.60;1.90;;;;;;;;;;8362856;28;20025;-60
2022/08/24 01:21:33;;;;;;;2.90;1.88;;;;;;;;;;8360431;28;20092;-58
2022/08/24 01:25:34;;;;;;;3.95;1.70;;;;;;;;;;8363170;28;20032;-57
2022/08/24 01:29:35;;;;;;;4.40;1.60;;;;;;;;;;8364987;28;20107;-58
2022/08/24 01:33:35;;;;;;;3.53;1.80;;;;;;;;;;8361569;28;20041;-60
2022/08/24 01:37:35;;;;;;;2.20;1.85;;;;;;;;;;8357181;28;20377;-58
2022/08/24 01:41:36;;;;;;;2.15;1.80;;;;;;;;;;8362561;28;20047;-58
2022/08/24 01:45:37;;;;;;;2.80;1.90;;;;;;;;;;8356529;28;20075;-58
2022/08/24 01:49:40;;;;;;;5.20;1.80;;;;;;;;;;8356902;28;20020;-58
2022/08/24 01:53:40;;;;;;;2.60;1.60;;;;;;;;;;8356173;28;20027;-59
2022/08/24 01:57:41;;;;;;;3.90;1.83;;;;;;;;;;8355711;28;20051;-58
2022/08/24 02:01:44;;;;;;;3.20;1.83;;;;;;;;;;8354831;28;20448;-58
2022/08/24 02:05:44;;;;;;;5.57;1.90;;;;;;;;;;8357021;28;20032;-58
2022/08/24 02:09:45;;;;;;;2.40;1.90;;;;;;;;;;8353313;28;20449;-57
2022/08/24 02:13:46;;;;;;;2.40;1.55;;;;;;;;;;8346685;28;20055;-57
2022/08/24 02:17:47;;;;;;;2.88;1.70;;;;;;;;;;8346638;28;20649;-57
2022/08/24 02:21:47;;;;;;;3.08;1.75;;;;;;;;;;8346183;28;20531;-58
2022/08/24 02:25:47;;;;;;;1.73;1.50;;;;;;;;;;8349432;28;20109;-58
2022/08/24 02:29:47;;;;;;;3.73;1.73;;;;;;;;;;8348952;28;20050;-57
2022/08/24 02:33:48;;;;;;;2.70;1.83;;;;;;;;;;8347021;28;20045;-58
2022/08/24 02:37:48;;;;;;;3.78;2.10;;;;;;;;;;8347175;28;20105;-58
2022/08/24 02:41:49;;;;;;;2.83;1.92;;;;;;;;;;8347523;28;20025;-58
2022/08/24 02:45:50;;;;;;;3.58;2.10;;;;;;;;;;8348310;28;20048;-58
2022/08/24 02:49:50;;;;;;;4.72;2.10;;;;;;;;;;8348882;28;20039;-58
2022/08/24 02:53:50;;;;;;;4.22;1.92;;;;;;;;;;8349080;28;20033;-58
2022/08/24 02:57:50;;;;;;;2.77;2.00;;;;;;;;;;8346919;28;20021;-57
2022/08/24 03:01:51;;;;;;;2.92;1.90;;;;;;;;;;8349513;28;20480;-58
2022/08/24 03:05:51;;;;;;;3.87;1.90;;;;;;;;;;8347682;28;20726;-57
2022/08/24 03:09:51;;;;;;;3.90;2.10;;;;;;;;;;8349540;28;20428;-57
2022/08/24 03:13:51;;;;;;;4.40;1.80;;;;;;;;;;8345577;28;20035;-57
2022/08/24 03:17:51;;;;;;;2.65;2.15;;;;;;;;;;8345160;28;20041;-60
2022/08/24 03:21:53;;;;;;;3.28;2.28;;;;;;;;;;8347632;28;20032;-58
2022/08/24 03:25:54;;;;;;;6.35;2.10;;;;;;;;;;8349963;28;20024;-58
2022/08/24 03:29:54;;;;;;;2.08;1.90;;;;;;;;;;8345391;28;20039;-58
2022/08/24 03:33:54;;;;;;;4.63;2.10;;;;;;;;;;8348670;28;20045;-58
2022/08/24 03:37:54;;;;;;;3.63;2.13;;;;;;;;;;8346303;28;20306;-58
2022/08/24 03:41:55;;;;;;;2.03;1.60;;;;;;;;;;8347409;28;20094;-58
2022/08/24 03:45:55;;;;;;;4.47;2.42;;;;;;;;;;8348823;28;20108;-57
2022/08/24 03:49:56;;;;;;;3.20;2.00;;;;;;;;;;8355651;28;20052;-58
2022/08/24 03:53:57;;;;;;;2.10;1.90;;;;;;;;;;8355095;28;21633;-57
2022/08/24 03:57:58;;;;;;;4.95;2.10;;;;;;;;;;8353192;28;20540;-57
2022/08/24 04:01:59;;;;;;;7.40;2.20;;;;;;;;;;8354371;28;20036;-58
2022/08/24 04:06:00;;;;;;;3.78;1.95;;;;;;;;;;8354408;28;20036;-57
2022/08/24 04:10:00;;;;;;;2.80;1.98;;;;;;;;;;8355195;28;20425;-58
2022/08/24 04:14:00;;;;;;;3.60;2.00;;;;;;;;;;8355007;28;20031;-58
2022/08/24 04:18:01;;;;;;;3.40;1.90;;;;;;;;;;8352995;28;20830;-57
2022/08/24 04:22:01;;;;;;;2.80;1.90;;;;;;;;;;8353825;28;20414;-57
2022/08/24 04:26:02;;;;;;;2.92;2.17;;;;;;;;;;8354670;28;20021;-57
2022/08/24 04:30:05;;;;;;;2.50;1.80;;;;;;;;;;8352297;28;20020;-59
2022/08/24 04:34:06;;;;;;;4.90;2.00;;;;;;;;;;8356068;28;20376;-57
2022/08/24 04:38:07;;;;;;;8.13;2.10;;;;;;;;;;8356295;28;20029;-58
2022/08/24 04:42:07;;;;;;;3.13;2.20;;;;;;;;;;8363040;28;20036;-57
2022/08/24 04:46:07;;;;;;;4.75;2.15;;;;;;;;;;8354939;28;20546;-58
2022/08/24 04:50:07;;;;;;;3.10;1.85;;;;;;;;;;8356347;28;20024;-58
2022/08/24 04:54:08;;;;;;;4.30;2.10;;;;;;;;;;8357440;28;20067;-58
2022/08/24 04:58:08;;;;;;;2.83;2.10;;;;;;;;;;8355551;28;20482;-58
2022/08/24 05:02:09;;;;;;;6.65;2.33;;;;;;;;;;8361688;28;20144;-57
2022/08/24 05:06:10;;;;;;;3.92;2.17;;;;;;;;;;8360991;28;20048;-58
2022/08/24 05:10:10;;;;;;;4.55;2.13;;;;;;;;;;8360788;28;20048;-58
2022/08/24 05:14:11;;;;;;;4.37;2.40;;;;;;;;;;8360721;28;20173;-57
2022/08/24 05:18:12;;;;;;;4.47;2.40;;;;;;;;;;8357409;28;20039;-57
2022/08/24 05:22:14;;;;;;;4.65;2.30;;;;;;;;;;8361840;28;20050;-58
2022/08/24 05:26:15;;;;;;;4.43;2.15;;;;;;;;;;8363020;28;20048;-58
2022/08/24 05:30:16;;;;;;;5.50;2.40;;;;;;;;;;8359017;28;20183;-57
2022/08/24 05:34:17;;;;;;;4.57;2.00;;;;;;;;;;8361038;28;20031;-57
2022/08/24 05:38:17;;;;;;;6.13;1.90;;;;;;;;;;8362701;28;20033;-57
2022/08/24 05:42:17;;;;;;;3.25;2.22;;;;;;;;;;8361416;28;20067;-57
2022/08/24 05:46:17;;;;;;;3.58;2.20;;;;;;;;;;8359524;28;20041;-58
2022/08/24 05:50:18;;;;;;;7.63;2.40;;;;;;;;;;8357961;28;20103;-58
2022/08/24 05:54:18;;;;;;;2.37;2.10;;;;;;;;;;8358044;28;20286;-57
2022/08/24 05:58:19;;;;;;;5.50;2.30;;;;;;;;;;8357495;28;20263;-58
2022/08/24 06:02:22;;;;;;;8.32;2.35;;;;;;;;;;8355679;28;20032;-58
2022/08/24 06:06:22;;;;;;;3.95;2.30;;;;;;;;;;8357781;28;20024;-58
2022/08/24 06:10:23;;;;;;;6.20;2.30;;;;;;;;;;8356161;28;20051;-58
2022/08/24 06:14:23;;;;;;;3.15;2.00;;;;;;;;;;8355467;28;20032;-58
2022/08/24 06:18:23;;;;;;;3.20;1.80;;;;;;;;;;8355084;28;20133;-58
2022/08/24 06:22:23;;;;;;;3.75;1.90;;;;;;;;;;8360688;28;20108;-58
2022/08/24 06:30:43;;;;;;;3.70;1.80;;;;;;;;;;8368418;28;20044;-58
2022/08/24 06:34:43;;;;;;;4.17;1.93;;;;;;;;;;8372870;28;20028;-58
2022/08/24 06:38:43;;;;;;;5.32;1.90;;;;;;;;;;8371973;28;20025;-57
2022/08/24 06:42:44;;;;;;;1.90;1.70;;;;;;;;;;8370798;28;20034;-58
2022/08/24 06:46:44;;;;;;;4.22;2.05;;;;;;;;;;8368112;28;20039;-58
2022/08/24 06:50:45;;;;;;;2.45;1.60;;;;;;;;;;8367531;28;20090;-58
2022/08/24 06:54:47;;;;;;;3.22;1.85;;;;;;;;;;8369383;28;20143;-58
2022/08/24 06:58:47;;;;;;;5.38;1.70;;;;;;;;;;8363062;28;20028;-60
2022/08/24 07:02:47;;;;;;;5.55;1.67;;;;;;;;;;8357507;28;20088;-59
2022/08/24 07:06:48;;;;;;;2.03;1.60;;;;;;;;;;8357615;28;20131;-59
2022/08/24 07:10:49;;;;;;;3.15;1.70;;;;;;;;;;8361870;28;20358;-58
2022/08/24 07:14:49;;;;;;;5.32;1.70;;;;;;;;;;8357117;28;20146;-59
2022/08/24 07:18:50;;;;;;;1.55;1.45;;;;;;;;;;8354810;28;20043;-58
2022/08/24 07:22:56;;;;;;;4.85;1.90;;;;;;;;;;8360499;28;20108;-59
2022/08/24 07:26:56;;;;;;;3.72;1.80;;;;;;;;;;8362642;28;20048;-60
2022/08/24 07:30:56;;;;;;;2.03;1.40;;;;;;;;;;8359585;28;20043;-59
2022/08/24 07:34:57;;;;;;;2.47;1.70;;;;;;;;;;8360665;28;20020;-59
2022/08/24 07:38:57;;;;;;;3.83;1.63;;;;;;;;;;8362241;28;20040;-58
2022/08/24 07:42:58;;;;;;;5.53;1.95;;;;;;;;;;8360431;28;20024;-59
2022/08/24 07:46:58;;;;;;;4.47;1.80;;;;;;;;;;8361052;28;20064;-59
2022/08/24 07:51:05;;;;;;;3.37;1.60;;;;;;;;;;8363394;28;20093;-59
2022/08/24 07:55:06;;;;;;;7.18;2.03;;;;;;;;;;8361422;28;20020;-59
2022/08/24 07:59:06;;;;;;;6.63;1.90;;;;;;;;;;8360461;28;20085;-59
2022/08/24 08:03:06;;;;;;;12.45;1.90;;;;;;;;;;8356537;28;20040;-60
2022/08/24 08:07:06;;;;;;;5.18;1.80;;;;;;;;;;8361608;28;20031;-61
2022/08/24 08:11:07;;;;;;;2.53;1.52;;;;;;;;;;8360673;28;20056;-59
2022/08/24 08:15:08;;;;;;;3.50;2.00;;;;;;;;;;8356100;28;20852;-60
2022/08/24 08:19:08;;;;;;;5.30;2.10;;;;;;;;;;8356763;28;20103;-59
2022/08/24 08:27:28;;;;;;;4.03;1.90;;;;;;;;;;8353236;28;20318;-59
2022/08/24 08:31:28;;;;;;;3.17;1.57;;;;;;;;;;8348048;28;20715;-59
2022/08/24 08:35:28;;;;;;;3.97;1.70;;;;;;;;;;8346652;28;20386;-59
2022/08/24 08:39:28;;;;;;;2.60;1.80;;;;;;;;;;8337392;28;20033;-59
2022/08/24 08:43:42;;;;;;;1.87;1.70;;;;;;;;;;8347726;28;20021;-59
2022/08/24 08:48:01;;;;;;;2.72;1.90;;;;;;;;;;8350435;28;20285;-59
2022/08/24 08:52:23;;;;;;;6.43;1.70;;;;;;;;;;8374712;28;20225;-60
2022/08/24 08:56:32;;;;;;;6.72;1.92;;;;;;;;;;8383394;28;20028;-61
2022/08/24 09:00:54;;;;;;;6.55;2.17;;;;;;;;;;8387228;28;20806;-60
2022/08/24 09:04:54;;;;;;;4.97;1.60;;;;;;;;;;8377896;28;20036;-60
2022/08/24 09:09:14;;;;;;;3.88;1.80;;;;;;;;;;8378152;28;20060;-60
2022/08/24 09:13:34;;;;;;;3.50;1.85;;;;;;;;;;8382118;28;20184;-60
2022/08/24 09:17:58;;;;;;;3.15;1.52;;;;;;;;;;8363764;28;20043;-60
2022/08/24 09:22:10;;;;;;;4.85;1.70;;;;;;;;;;8381105;28;20033;-60
2022/08/24 09:26:25;;;;;;;4.55;1.73;;;;;;;;;;8385798;28;20031;-60
2022/08/24 09:30:31;;;;;;;5.43;1.45;;;;;;;;;;8376714;28;20259;-60
2022/08/24 09:34:42;;;;;;;2.72;1.70;;;;;;;;;;8378540;28;20135;-60
2022/08/24 09:38:56;;;;;;;2.83;1.50;;;;;;;;;;8377106;28;20016;-60
2022/08/24 09:43:02;;;;;;;4.13;1.60;;;;;;;;;;8367164;28;20021;-60
2022/08/24 09:47:12;;;;;;;4.13;1.73;;;;;;;;;;8377590;28;20036;-60
2022/08/24 09:51:21;;;;;;;4.50;1.77;;;;;;;;;;8379448;28;20027;-59
2022/08/24 09:55:47;;;;;;;6.40;1.70;;;;;;;;;;8375026;28;20033;-60
2022/08/24 10:00:08;;;;;;;4.32;1.70;;;;;;;;;;8374459;28;20416;-60
2022/08/24 10:04:12;;;;;;;5.50;1.65;;;;;;;;;;8371021;28;20055;-59
2022/08/24 10:08:24;;;;;;;4.75;1.50;;;;;;;;;;8387910;28;20028;-59
2022/08/24 10:12:27;;;;;;;3.28;1.75;;;;;;;;;;8384586;28;20074;-58
2022/08/24 10:16:35;;;;;;;2.35;1.58;;;;;;;;;;8380693;28;20114;-59
2022/08/24 10:20:47;;;;;;;4.43;1.70;;;;;;;;;;8382103;28;20024;-59
2022/08/24 10:25:07;;;;;;;7.00;1.90;;;;;;;;;;8375765;28;20091;-59
2022/08/24 10:29:18;;;;;;;7.90;1.85;;;;;;;;;;8368439;28;20020;-59
2022/08/24 10:33:18;;;;;;;2.38;1.80;;;;;;;;;;8370158;28;20055;-59
2022/08/24 10:37:37;;;;;;;3.10;2.23;;;;;;;;;;8372164;28;20138;-59
2022/08/24 10:41:43;;;;;;;4.03;1.95;;;;;;;;;;8376581;28;20036;-59
2022/08/24 10:46:02;;;;;;;6.22;3.15;;;;;;;;;;8377233;28;20051;-59
2022/08/24 10:50:02;;;;;;;4.82;3.30;;;;;;;;;;8373320;28;20620;-59
2022/08/24 10:54:03;;;;;;;5.57;1.67;;;;;;;;;;8380685;28;20433;-59
2022/08/24 10:58:11;;;;;;;3.63;1.97;;;;;;;;;;8372568;28;20499;-59
2022/08/24 11:02:32;;;;;;;3.65;1.80;;;;;;;;;;8373881;28;20933;-59
2022/08/24 11:06:37;;;;;;;4.85;1.80;;;;;;;;;;8375224;28;20031;-60
2022/08/24 11:10:38;;;;;;;5.78;1.90;;;;;;;;;;8373033;28;20509;-59
2022/08/24 11:14:38;;;;;;;3.63;1.50;;;;;;;;;;8369373;28;20097;-59
2022/08/24 11:18:45;;;;;;;4.87;1.53;;;;;;;;;;8368284;28;20690;-59
2022/08/24 11:23:06;;;;;;;1.95;1.52;;;;;;;;;;8368882;28;20167;-59
2022/08/24 11:27:17;;;;;;;5.55;1.70;;;;;;;;;;8367497;28;20040;-59
2022/08/24 11:31:27;;;;;;;2.72;1.40;;;;;;;;;;8361086;28;20446;-59
2022/08/24 11:35:27;;;;;;;3.88;1.60;;;;;;;;;;8362070;28;20024;-59
2022/08/24 11:39:36;;;;;;;3.67;1.80;;;;;;;;;;8365807;28;20357;-59
2022/08/24 11:43:49;;;;;;;4.97;1.60;;;;;;;;;;8365900;28;20036;-59
2022/08/24 11:48:12;;;;;;;7.07;1.55;;;;;;;;;;8361647;28;20234;-59
2022/08/24 11:52:12;;;;;;;5.25;1.38;;;;;;;;;;8356758;28;20090;-59
2022/08/24 11:56:12;;;;;;;3.00;1.58;;;;;;;;;;8359884;28;20088;-59
2022/08/24 12:00:15;;;;;;;3.38;1.50;;;;;;;;;;8363399;28;20016;-60
2022/08/24 12:04:34;;;;;;;4.88;1.58;;;;;;;;;;8357805;28;20032;-59
2022/08/24 12:08:34;;;;;;;2.40;1.30;;;;;;;;;;8365677;28;20094;-59
2022/08/24 12:12:40;;;;;;;6.00;1.63;;;;;;;;;;8363697;28;20043;-59
2022/08/24 12:16:48;;;;;;;2.78;1.50;;;;;;;;;;8370035;28;20045;-59
2022/08/24 12:20:49;;;;;;;1.77;1.50;;;;;;;;;;8365514;28;20089;-59
2022/08/24 12:26:00;;;;;;;4.82;1.70;;;;;;;;;;8368375;28;20682;-60
2022/08/24 12:29:43;;;;;;;3.92;1.88;;;;;;;;;;8364799;28;20524;-59
2022/08/24 12:33:46;;;;;;;3.60;1.50;;;;;;;;;;8366550;28;20176;-59
2022/08/24 12:37:52;;;;;;;6.00;1.50;;;;;;;;;;8364402;28;20024;-60
2022/08/24 12:42:00;;;;;;;3.33;1.42;;;;;;;;;;8365059;28;20559;-59
2022/08/24 12:46:01;;;;;;;1.98;1.48;;;;;;;;;;8365782;28;20032;-59
2022/08/24 12:50:08;;;;;;;1.80;1.40;;;;;;;;;;8367837;28;20020;-59
2022/08/24 12:54:28;;;;;;;2.33;1.92;;;;;;;;;;8371525;28;20032;-61
2022/08/24 12:58:29;;;;;;;2.70;1.60;;;;;;;;;;8372404;28;20012;-59
2022/08/24 13:02:39;;;;;;;4.50;1.80;;;;;;;;;;8368639;28;20032;-59
2022/08/24 13:06:42;;;;;;;4.80;1.60;;;;;;;;;;8365780;28;20030;-60
2022/08/24 13:10:50;;;;;;;2.05;1.60;;;;;;;;;;8363327;28;20535;-59
2022/08/24 13:14:50;;;;;;;5.57;1.63;;;;;;;;;;8359537;28;20127;-60
2022/08/24 13:19:05;;;;;;;5.93;1.80;;;;;;;;;;8360565;28;20138;-59
2022/08/24 13:23:12;;;;;;;2.67;1.70;;;;;;;;;;8362061;28;20070;-59
2022/08/24 13:27:12;;;;;;;2.53;1.60;;;;;;;;;;8361543;28;20017;-59
2022/08/24 13:31:12;;;;;;;5.50;1.70;;;;;;;;;;8360483;28;20152;-58
2022/08/24 13:35:28;;;;;;;4.18;2.00;;;;;;;;;;8362039;28;20032;-59
2022/08/24 13:39:43;;;;;;;8.63;1.88;;;;;;;;;;8363294;28;20047;-60
2022/08/24 13:43:50;;;;;;;6.40;1.70;;;;;;;;;;8361182;28;20060;-58
2022/08/24 13:48:07;;;;;;;4.95;1.58;;;;;;;;;;8362823;28;20039;-59
2022/08/24 13:52:13;;;;;;;3.97;1.95;;;;;;;;;;8358914;28;20032;-59
2022/08/24 13:56:22;;;;;;;6.30;1.75;;;;;;;;;;8360545;28;20491;-59
2022/08/24 14:00:29;;;;;;;3.08;1.60;;;;;;;;;;8358220;28;20032;-59
2022/08/24 14:04:29;;;;;;;3.63;1.65;;;;;;;;;;8360559;28;21055;-59
2022/08/24 14:08:43;;;;;;;2.83;1.48;;;;;;;;;;8364239;28;20033;-59
2022/08/24 14:13:13;;;;;;;2.40;1.45;;;;;;;;;;8361467;28;20028;-58
2022/08/24 14:17:50;;;;;;;2.53;1.55;;;;;;;;;;8303588;28;20044;-59
2022/08/24 14:22:05;;;;;;;2.75;1.50;;;;;;;;;;8359770;28;20145;-60
2022/08/24 14:26:24;;;;;;;2.40;1.23;;;;;;;;;;8357574;28;20031;-60
2022/08/24 14:30:27;;;;;;;2.53;1.30;;;;;;;;;;8356244;28;20040;-60
2022/08/24 14:34:40;;;;;;;4.85;1.90;;;;;;;;;;8359101;28;20543;-58
2022/08/24 14:38:44;;;;;;;4.28;1.92;;;;;;;;;;8362069;28;20020;-59
2022/08/24 14:42:45;;;;;;;9.80;1.73;;;;;;;;;;8366013;28;20221;-58
2022/08/24 14:47:01;;;;;;;4.13;1.55;;;;;;;;;;8376735;28;20067;-58
2022/08/24 14:51:09;;;;;;;2.42;1.40;;;;;;;;;;8375590;28;20730;-59
2022/08/24 14:55:20;;;;;;;4.43;1.63;;;;;;;;;;8361809;28;20514;-59
2022/08/24 14:59:27;;;;;;;1.97;1.60;;;;;;;;;;8376000;28;20081;-58
2022/08/24 15:03:36;;;;;;;2.25;1.52;;;;;;;;;;8372685;28;20390;-60
2022/08/24 15:07:38;;;;;;;1.65;1.55;;;;;;;;;;8370218;28;20465;-59
2022/08/24 15:11:39;;;;;;;3.60;1.70;;;;;;;;;;8372583;28;20021;-58
2022/08/24 15:15:50;;;;;;;2.50;1.48;;;;;;;;;;8368207;28;20340;-58
2022/08/24 15:19:50;;;;;;;1.85;1.50;;;;;;;;;;8376583;28;20545;-58
2022/08/24 15:24:07;;;;;;;2.05;1.60;;;;;;;;;;8377814;28;20044;-58
2022/08/24 15:28:10;;;;;;;3.05;1.50;;;;;;;;;;8377739;28;20048;-59
2022/08/24 15:32:11;;;;;;;3.00;1.60;;;;;;;;;;8378424;28;20031;-59
2022/08/24 15:36:13;;;;;;;6.38;1.80;;;;;;;;;;8381995;28;20047;-58
2022/08/24 15:40:22;;;;;;;3.90;1.60;;;;;;;;;;8377207;28;20016;-58
2022/08/24 15:44:24;;;;;;;3.80;1.40;;;;;;;;;;8382451;28;20020;-58
2022/08/24 15:48:25;;;;;;;2.97;1.60;;;;;;;;;;8378733;28;20033;-58
2022/08/24 15:52:34;;;;;;;1.77;1.35;;;;;;;;;;8378047;28;20024;-58
2022/08/24 15:56:42;;;;;;;4.00;1.70;;;;;;;;;;8378239;28;20032;-59
2022/08/24 16:05:10;;;;;;;4.38;1.80;;;;;;;;;;8385598;28;20081;-59
2022/08/24 16:09:10;;;;;;;1.95;1.50;;;;;;;;;;8386686;28;20033;-59
2022/08/24 16:13:17;;;;;;;1.92;1.40;;;;;;;;;;8382966;28;20958;-59
2022/08/24 16:17:22;;;;;;;2.50;1.60;;;;;;;;;;8381429;28;20028;-59
2022/08/24 16:21:49;;;;;;;1.63;1.42;;;;;;;;;;8377450;28;20028;-59
2022/08/24 16:26:01;;;;;;;2.42;1.55;;;;;;;;;;8379822;28;20028;-59
2022/08/24 16:30:18;;;;;;;4.60;1.58;;;;;;;;;;8379754;28;20029;-58
2022/08/24 16:34:20;;;;;;;2.13;1.30;;;;;;;;;;8381522;28;20036;-58
2022/08/24 16:38:22;;;;;;;2.78;1.40;;;;;;;;;;8375936;28;20031;-59
2022/08/24 16:42:26;;;;;;;4.13;1.70;;;;;;;;;;8378462;28;20340;-58
2022/08/24 16:46:26;;;;;;;6.65;1.50;;;;;;;;;;8380394;28;20037;-59
2022/08/24 16:50:26;;;;;;;1.40;1.30;;;;;;;;;;8372789;28;20028;-58
2022/08/24 16:54:26;;;;;;;3.15;1.48;;;;;;;;;;8376080;28;20128;-58
2022/08/24 16:58:29;;;;;;;2.80;1.38;;;;;;;;;;8375140;28;20038;-59
2022/08/24 17:02:29;;;;;;;6.82;1.40;;;;;;;;;;8374909;28;20032;-59
2022/08/24 17:06:32;;;;;;;2.13;1.30;;;;;;;;;;8375923;28;20134;-59
2022/08/24 17:10:32;;;;;;;3.88;1.30;;;;;;;;;;8378614;28;20025;-59
2022/08/24 17:14:32;;;;;;;3.83;1.30;;;;;;;;;;8375818;28;20607;-59
2022/08/24 17:18:32;;;;;;;2.53;1.33;;;;;;;;;;8372629;28;20040;-59
2022/08/24 17:22:32;;;;;;;3.20;1.55;;;;;;;;;;8374139;28;20043;-59
2022/08/24 17:26:33;;;;;;;1.95;1.48;;;;;;;;;;8374714;28;20016;-59
2022/08/24 17:30:33;;;;;;;4.15;1.60;;;;;;;;;;8372287;28;20482;-59
2022/08/24 17:34:33;;;;;;;3.22;1.50;;;;;;;;;;8374202;28;20070;-59
2022/08/24 17:38:37;;;;;;;4.53;1.50;;;;;;;;;;8374957;28;20600;-59
2022/08/24 17:42:37;;;;;;;2.88;1.45;;;;;;;;;;8375872;28;20532;-58
2022/08/24 17:46:39;;;;;;;2.47;1.40;;;;;;;;;;8377184;28;20043;-59
2022/08/24 17:50:39;;;;;;;2.33;1.58;;;;;;;;;;8375059;28;20021;-60
2022/08/24 17:54:39;;;;;;;3.22;1.60;;;;;;;;;;8375918;28;20066;-60
2022/08/24 18:02:59;;;;;;;2.28;1.40;;;;;;;;;;8369528;28;20040;-59
2022/08/24 18:07:03;;;;;;;3.55;1.40;;;;;;;;;;8372989;28;20159;-59
2022/08/24 18:11:03;;;;;;;1.58;1.27;;;;;;;;;;8367707;28;20564;-58
2022/08/24 18:15:05;;;;;;;2.03;1.40;;;;;;;;;;8365202;28;20028;-58
2022/08/24 18:19:05;;;;;;;1.30;1.20;;;;;;;;;;8364559;28;20523;-59
2022/08/24 18:23:07;;;;;;;5.38;1.60;;;;;;;;;;8364754;28;20016;-59
2022/08/24 18:27:18;;;;;;;1.55;1.40;;;;;;;;;;8367443;28;20551;-59
2022/08/24 18:31:19;;;;;;;4.68;1.55;;;;;;;;;;8361426;28;20051;-59
2022/08/24 18:35:19;;;;;;;9.40;1.83;;;;;;;;;;8359352;28;20674;-60
2022/08/24 18:39:20;;;;;;;8.60;1.67;;;;;;;;;;8356758;28;20035;-58
2022/08/24 18:43:22;;;;;;;2.20;1.30;;;;;;;;;;8351868;28;20052;-58
2022/08/24 18:47:22;;;;;;;2.22;1.40;;;;;;;;;;8352091;28;20358;-59
2022/08/24 18:51:23;;;;;;;3.97;1.40;;;;;;;;;;8353319;28;20334;-58
2022/08/24 18:55:25;;;;;;;1.60;1.50;;;;;;;;;;8356814;28;20028;-58
2022/08/24 18:59:25;;;;;;;1.70;1.40;;;;;;;;;;8356593;28;20613;-58
2022/08/24 19:03:26;;;;;;;1.55;1.45;;;;;;;;;;8357254;28;20094;-59
2022/08/24 19:07:27;;;;;;;2.70;1.50;;;;;;;;;;8357678;28;20785;-58
2022/08/24 19:11:27;;;;;;;2.55;1.58;;;;;;;;;;8352467;28;20084;-58
2022/08/24 19:15:28;;;;;;;4.13;1.30;;;;;;;;;;8352037;28;20493;-58
2022/08/24 19:19:28;;;;;;;2.75;1.27;;;;;;;;;;8360288;28;20028;-58
2022/08/24 19:23:31;;;;;;;6.57;1.60;;;;;;;;;;8359836;28;20147;-58
2022/08/24 19:27:32;;;;;;;4.38;1.58;;;;;;;;;;8364926;28;20031;-59
2022/08/24 19:31:32;;;;;;;3.83;1.60;;;;;;;;;;8363216;28;20036;-58
2022/08/24 19:35:33;;;;;;;8.65;1.58;;;;;;;;;;8365536;28;20028;-59
2022/08/24 19:39:33;;;;;;;6.15;1.70;;;;;;;;;;8364047;28;20032;-58
2022/08/24 19:43:34;;;;;;;5.50;1.60;;;;;;;;;;8360897;28;20039;-58
2022/08/24 19:47:34;;;;;;;7.37;1.40;;;;;;;;;;8361582;28;20043;-58
2022/08/24 19:51:35;;;;;;;3.92;1.70;;;;;;;;;;8366535;28;20021;-58
2022/08/24 19:55:35;;;;;;;7.00;1.60;;;;;;;;;;8365615;28;20024;-59
2022/08/24 19:59:39;;;;;;;7.05;1.60;;;;;;;;;;8364967;28;20579;-58
2022/08/24 20:03:40;;;;;;;7.28;1.83;;;;;;;;;;8361664;28;20464;-58
2022/08/24 20:07:40;;;;;;;7.70;1.70;;;;;;;;;;8361127;28;20428;-58
2022/08/24 20:11:41;;;;;;;11.00;1.70;;;;;;;;;;8360002;28;20032;-58
2022/08/24 20:15:41;;;;;;;3.38;1.42;;;;;;;;;;8361208;28;20575;-58
2022/08/24 20:19:42;;;;;;;8.35;1.75;;;;;;;;;;8364385;28;20024;-58
2022/08/24 20:23:42;;;;;;;5.60;1.70;;;;;;;;;;8359092;28;20024;-58
2022/08/24 20:27:44;;;;;;;3.45;1.52;;;;;;;;;;8363245;28;20347;-57
2022/08/24 20:31:45;;;;;;;6.82;1.60;;;;;;;;;;8360674;28;20844;-58
2022/08/24 20:35:45;;;;;;;9.82;1.45;;;;;;;;;;8364737;28;20024;-58
2022/08/24 20:39:46;;;;;;;4.80;1.77;;;;;;;;;;8366652;28;20407;-58
2022/08/24 20:43:46;;;;;;;2.42;1.55;;;;;;;;;;8363021;28;20902;-58
2022/08/24 20:47:48;;;;;;;1.67;1.23;;;;;;;;;;8367451;28;20052;-58
2022/08/24 20:51:48;;;;;;;1.80;1.20;;;;;;;;;;8368037;28;20060;-58
2022/08/24 20:55:49;;;;;;;1.50;1.40;;;;;;;;;;8369377;28;20501;-58
2022/08/24 20:59:50;;;;;;;2.08;1.50;;;;;;;;;;8369761;28;20167;-58
2022/08/24 21:03:52;;;;;;;5.75;1.35;;;;;;;;;;8367510;28;20047;-58
2022/08/24 21:07:55;;;;;;;2.50;1.23;;;;;;;;;;8368132;28;20021;-58
2022/08/24 21:11:57;;;;;;;2.17;1.52;;;;;;;;;;8367889;28;20032;-58
2022/08/24 21:15:57;;;;;;;2.00;1.30;;;;;;;;;;8363049;28;20347;-58
2022/08/24 21:19:57;;;;;;;2.20;1.40;;;;;;;;;;8363121;28;20484;-58
2022/08/24 21:23:58;;;;;;;1.55;1.20;;;;;;;;;;8365800;28;20088;-57
2022/08/24 21:28:00;;;;;;;2.80;1.35;;;;;;;;;;8361428;28;20043;-58
2022/08/24 21:36:22;;;;;;;3.00;1.50;;;;;;;;;;8360056;28;20067;-58
2022/08/24 21:40:22;;;;;;;2.10;1.50;;;;;;;;;;8361978;28;20055;-58
2022/08/24 21:44:23;;;;;;;1.83;1.30;;;;;;;;;;8360262;28;20133;-58
2022/08/24 21:48:23;;;;;;;4.35;1.30;;;;;;;;;;8360139;28;20473;-58
2022/08/24 21:52:23;;;;;;;3.58;1.30;;;;;;;;;;8356890;28;20618;-58
2022/08/24 21:56:25;;;;;;;1.65;1.20;;;;;;;;;;8357320;28;20138;-58
2022/08/24 22:00:25;;;;;;;4.43;1.30;;;;;;;;;;8357055;28;20035;-58
2022/08/24 22:04:26;;;;;;;2.53;1.40;;;;;;;;;;8358213;28;20016;-58
2022/08/24 22:08:26;;;;;;;2.72;1.25;;;;;;;;;;8356412;28;20078;-58
2022/08/24 22:12:26;;;;;;;3.13;1.40;;;;;;;;;;8355294;28;20239;-58
2022/08/24 22:16:27;;;;;;;1.40;1.30;;;;;;;;;;8354092;28;20028;-58
2022/08/24 22:20:27;;;;;;;1.70;1.23;;;;;;;;;;8350326;28;20100;-58
2022/08/24 22:24:27;;;;;;;1.40;1.30;;;;;;;;;;8355928;28;20023;-58
2022/08/24 22:28:28;;;;;;;2.25;1.38;;;;;;;;;;8352571;28;20020;-58
2022/08/24 22:32:28;;;;;;;2.42;1.27;;;;;;;;;;8348519;28;20113;-58
2022/08/24 22:36:28;;;;;;;2.47;1.30;;;;;;;;;;8343777;28;20040;-57
2022/08/24 22:40:29;;;;;;;3.20;1.33;;;;;;;;;;8346791;28;20125;-58
2022/08/24 22:44:29;;;;;;;2.85;1.40;;;;;;;;;;8349727;28;20119;-58
2022/08/24 22:48:29;;;;;;;1.48;1.17;;;;;;;;;;8349531;28;20151;-58
2022/08/24 22:52:30;;;;;;;1.48;1.13;;;;;;;;;;8349029;28;20458;-58
2022/08/24 22:56:38;;;;;;;2.45;1.42;;;;;;;;;;8349661;28;20480;-58
2022/08/24 23:00:39;;;;;;;1.40;1.30;;;;;;;;;;8346378;28;20102;-57
2022/08/24 23:04:40;;;;;;;4.15;1.30;;;;;;;;;;8349859;28;20174;-57
2022/08/24 23:08:41;;;;;;;2.03;1.27;;;;;;;;;;8350232;28;20020;-57
2022/08/24 23:12:41;;;;;;;5.28;1.40;;;;;;;;;;8349249;28;20110;-57
2022/08/24 23:16:46;;;;;;;1.80;1.20;;;;;;;;;;8347684;28;20146;-57
2022/08/24 23:20:47;;;;;;;2.33;1.25;;;;;;;;;;8346614;28;20036;-58
2022/08/24 23:24:47;;;;;;;1.88;1.30;;;;;;;;;;8345714;28;20158;-58
2022/08/24 23:28:48;;;;;;;2.57;1.30;;;;;;;;;;8345829;28;20591;-58
2022/08/24 23:32:48;;;;;;;3.28;1.30;;;;;;;;;;8347036;28;20267;-57
2022/08/24 23:36:48;;;;;;;1.88;1.20;;;;;;;;;;8348152;28;20029;-57
2022/08/24 23:40:49;;;;;;;1.42;1.30;;;;;;;;;;8349452;28;20016;-58
2022/08/24 23:44:49;;;;;;;1.83;1.40;;;;;;;;;;8347883;28;20035;-58
2022/08/24 23:48:50;;;;;;;1.20;1.10;;;;;;;;;;8347434;28;20147;-58
2022/08/24 23:52:50;;;;;;;2.87;1.63;;;;;;;;;;8348722;28;20024;-57
2022/08/24 23:56:51;;;;;;;2.60;1.40;;;;;;;;;;8351572;28;20759;-58
